createdAt,value
2022-12-03T00:00:36.569Z,12.40
2022-12-03T00:03:04.135Z,11.73
2022-12-03T00:05:30.852Z,11.53
2022-12-03T00:07:57.461Z,12.60
2022-12-03T00:10:24.455Z,14.40
2022-12-03T00:12:50.927Z,12.63
2022-12-03T00:15:17.633Z,11.73
2022-12-03T00:17:44.493Z,13.17
2022-12-03T00:20:18.696Z,12.63
2022-12-03T00:22:45.444Z,12.53
2022-12-03T00:25:12.025Z,12.43
2022-12-03T00:27:38.551Z,12.10
2022-12-03T00:30:06.597Z,13.63
2022-12-03T00:32:33.137Z,12.73
2022-12-03T00:34:59.675Z,13.67
2022-12-03T00:37:26.536Z,12.83
2022-12-03T00:39:53.108Z,13.53
2022-12-03T00:42:19.610Z,12.87
2022-12-03T00:44:46.148Z,11.63
2022-12-03T00:47:12.947Z,12.40
2022-12-03T00:49:39.596Z,13.73
2022-12-03T00:52:06.197Z,12.97
2022-12-03T00:54:32.984Z,13.57
2022-12-03T00:56:59.537Z,13.50
2022-12-03T00:59:26.333Z,11.90
2022-12-03T01:01:52.971Z,13.37
2022-12-03T01:04:19.667Z,13.40
2022-12-03T01:06:46.408Z,12.37
2022-12-03T01:09:13.036Z,12.67
2022-12-03T01:11:39.707Z,12.57
2022-12-03T01:14:07.473Z,13.63
2022-12-03T01:16:34.616Z,12.13
2022-12-03T01:19:01.435Z,13.30
2022-12-03T01:21:28.570Z,11.97
2022-12-03T01:23:55.213Z,13.57
2022-12-03T01:26:21.755Z,12.07
2022-12-03T01:28:48.616Z,12.73
2022-12-03T01:31:33.916Z,12.47
2022-12-03T01:34:00.743Z,12.40
2022-12-03T01:36:27.321Z,13.70
2022-12-03T01:38:53.829Z,13.07
2022-12-03T01:41:22.695Z,12.93
2022-12-03T01:43:51.184Z,12.53
2022-12-03T01:46:24.681Z,13.17
2022-12-03T01:48:53.737Z,12.17
2022-12-03T01:51:20.463Z,13.70
2022-12-03T01:53:47.846Z,12.90
2022-12-03T01:56:17.248Z,12.40
2022-12-03T01:58:45.482Z,11.43
2022-12-03T02:01:18.110Z,12.73
2022-12-03T02:03:46.339Z,11.63
2022-12-03T02:06:21.306Z,12.50
2022-12-03T02:08:49.148Z,12.00
2022-12-03T02:11:34.522Z,13.27
2022-12-03T02:14:06.237Z,11.23
2022-12-03T02:16:35.065Z,13.03
2022-12-03T02:19:02.176Z,11.83
2022-12-03T02:22:02.082Z,10.37
2022-12-03T02:25:09.343Z,10.77
2022-12-03T02:27:36.037Z,10.40
2022-12-03T02:30:04.416Z,11.40
2022-12-03T02:32:31.017Z,12.10
2022-12-03T02:34:57.613Z,10.20
2022-12-03T02:37:30.791Z,12.23
2022-12-03T02:40:02.155Z,10.73
2022-12-03T02:42:35.686Z,11.10
2022-12-03T02:45:19.109Z,12.87
2022-12-03T02:47:49.595Z,12.50
2022-12-03T02:50:20.702Z,12.77
2022-12-03T02:52:48.103Z,12.50
2022-12-03T02:55:17.021Z,12.07
2022-12-03T02:57:46.533Z,13.63
2022-12-03T03:00:14.133Z,13.17
2022-12-03T03:02:41.854Z,12.63
2022-12-03T03:05:11.778Z,11.97
2022-12-03T03:07:39.719Z,13.80
2022-12-03T03:10:09.309Z,13.07
2022-12-03T03:12:39.244Z,12.53
2022-12-03T03:15:07.747Z,12.40
2022-12-03T03:17:34.472Z,11.87
2022-12-03T03:20:01.582Z,11.53
2022-12-03T03:22:36.363Z,13.57
2022-12-03T03:25:04.579Z,12.30
2022-12-03T03:27:31.437Z,12.67
2022-12-03T03:29:59.108Z,13.47
2022-12-03T03:32:28.299Z,11.97
2022-12-03T03:34:55.780Z,13.00
2022-12-03T03:37:24.196Z,12.80
2022-12-03T03:39:51.215Z,11.57
2022-12-03T03:42:18.003Z,13.57
2022-12-03T03:44:44.698Z,12.63
2022-12-03T03:47:12.696Z,11.27
2022-12-03T03:49:39.306Z,12.33
2022-12-03T03:52:06.301Z,11.43
2022-12-03T03:54:33.269Z,12.07
2022-12-03T03:56:59.860Z,11.83
2022-12-03T03:59:26.723Z,11.37
2022-12-03T04:01:53.659Z,12.20
2022-12-03T04:04:22.927Z,11.60
2022-12-03T04:06:49.717Z,12.83
2022-12-03T04:09:16.443Z,11.67
2022-12-03T04:12:01.551Z,10.90
2022-12-03T04:14:28.230Z,11.87
2022-12-03T04:16:54.845Z,12.77
2022-12-03T04:19:21.497Z,12.70
2022-12-03T04:22:06.519Z,12.53
2022-12-03T04:24:32.998Z,11.03
2022-12-03T04:27:17.891Z,10.60
2022-12-03T04:29:44.382Z,10.00
2022-12-03T04:32:29.361Z,11.83
2022-12-03T04:35:14.687Z,9.90
2022-12-03T04:37:41.463Z,9.30
2022-12-03T04:40:28.649Z,11.10
2022-12-03T04:42:55.456Z,12.07
2022-12-03T04:45:21.998Z,11.97
2022-12-03T04:47:48.555Z,11.97
2022-12-03T04:50:15.469Z,12.07
2022-12-03T04:52:41.929Z,12.27
2022-12-03T04:55:08.718Z,12.20
2022-12-03T04:57:35.251Z,12.73
2022-12-03T05:00:02.204Z,11.37
2022-12-03T05:02:28.775Z,12.20
2022-12-03T05:04:55.715Z,13.00
2022-12-03T05:07:22.398Z,12.23
2022-12-03T05:09:48.945Z,12.80
2022-12-03T05:12:15.528Z,11.67
2022-12-03T05:14:42.065Z,12.40
2022-12-03T05:17:08.678Z,11.83
2022-12-03T05:19:53.779Z,11.77
2022-12-03T05:22:20.316Z,12.43
2022-12-03T05:24:46.790Z,12.90
2022-12-03T05:27:15.822Z,12.33
2022-12-03T05:29:45.364Z,11.83
2022-12-03T05:32:11.921Z,11.80
2022-12-03T05:34:38.618Z,11.33
2022-12-03T05:37:05.200Z,13.57
2022-12-03T05:39:31.739Z,12.50
2022-12-03T05:42:17.170Z,12.87
2022-12-03T05:44:43.732Z,12.40
2022-12-03T05:47:10.233Z,11.20
2022-12-03T05:49:36.831Z,12.43
2022-12-03T05:52:03.458Z,11.87
2022-12-03T05:54:29.957Z,12.30
2022-12-03T05:56:56.672Z,11.60
2022-12-03T05:59:23.214Z,11.67
2022-12-03T06:01:49.729Z,10.83
2022-12-03T06:04:16.242Z,12.13
2022-12-03T06:06:42.736Z,12.50
2022-12-03T06:09:09.216Z,12.30
2022-12-03T06:11:37.143Z,12.13
2022-12-03T06:14:04.107Z,12.10
2022-12-03T06:16:30.648Z,11.90
2022-12-03T06:18:57.556Z,12.80
2022-12-03T06:21:24.187Z,11.13
2022-12-03T06:23:50.697Z,9.87
2022-12-03T06:26:17.265Z,12.97
2022-12-03T06:28:46.421Z,10.33
2022-12-03T06:31:14.047Z,10.47
2022-12-03T06:33:40.701Z,11.33
2022-12-03T06:36:07.416Z,12.77
2022-12-03T06:38:33.969Z,13.73
2022-12-03T06:41:00.507Z,13.80
2022-12-03T06:43:27.054Z,11.67
2022-12-03T06:45:53.533Z,11.87
2022-12-03T06:48:20.182Z,11.60
2022-12-03T06:50:46.678Z,12.87
2022-12-03T06:53:13.180Z,13.33
2022-12-03T06:55:39.701Z,12.60
2022-12-03T06:58:06.167Z,12.07
2022-12-03T07:00:32.681Z,13.17
2022-12-03T07:02:59.398Z,14.30
2022-12-03T07:05:25.970Z,13.20
2022-12-03T07:07:55.273Z,11.37
2022-12-03T07:10:22.920Z,12.70
2022-12-03T07:12:49.435Z,11.60
2022-12-03T07:15:16.140Z,12.57
2022-12-03T07:17:42.855Z,13.57
2022-12-03T07:20:09.966Z,12.53
2022-12-03T07:22:36.467Z,13.03
2022-12-03T07:25:03.041Z,12.03
2022-12-03T07:27:29.558Z,8.90
2022-12-03T07:29:56.099Z,10.67
2022-12-03T07:32:22.640Z,11.90
2022-12-03T07:34:49.122Z,8.57
2022-12-03T07:37:19.953Z,9.20
2022-12-03T07:39:49.473Z,11.57
2022-12-03T07:42:16.002Z,10.97
2022-12-03T07:44:42.527Z,11.30
2022-12-03T07:47:09.381Z,10.93
2022-12-03T07:49:35.919Z,11.90
2022-12-03T07:52:02.489Z,11.90
2022-12-03T07:54:29.203Z,10.73
2022-12-03T07:57:01.189Z,11.53
2022-12-03T07:59:28.843Z,11.77
2022-12-03T08:01:55.769Z,10.67
2022-12-03T08:04:22.451Z,11.50
2022-12-03T08:06:49.234Z,12.93
2022-12-03T08:09:16.640Z,13.23
2022-12-03T08:11:45.470Z,10.73
2022-12-03T08:14:19.535Z,11.57
2022-12-03T08:16:47.702Z,10.70
2022-12-03T08:19:16.708Z,11.97
2022-12-03T08:21:43.987Z,11.30
2022-12-03T08:24:19.414Z,11.57
2022-12-03T08:26:48.175Z,11.63
2022-12-03T08:29:18.271Z,11.90
2022-12-03T08:31:49.333Z,10.30
2022-12-03T08:34:27.315Z,11.00
2022-12-03T08:37:01.600Z,11.87
2022-12-03T08:39:37.934Z,12.33
2022-12-03T08:42:23.275Z,11.27
2022-12-03T08:44:49.782Z,9.87
2022-12-03T08:47:20.245Z,10.17
2022-12-03T08:50:30.209Z,9.77
2022-12-03T08:53:08.162Z,11.10
2022-12-03T08:55:36.983Z,9.90
2022-12-03T08:58:23.280Z,10.03
2022-12-03T09:01:15.446Z,11.60
2022-12-03T09:03:51.555Z,9.33
2022-12-03T09:06:18.272Z,10.50
2022-12-03T09:08:44.901Z,10.97
2022-12-03T09:11:11.466Z,11.03
2022-12-03T09:13:38.053Z,10.17
2022-12-03T09:16:04.818Z,10.70
2022-12-03T09:18:31.532Z,9.40
2022-12-03T09:20:58.365Z,9.00
2022-12-03T09:23:24.893Z,9.50
2022-12-03T09:25:51.369Z,10.63
2022-12-03T09:28:18.011Z,10.50
2022-12-03T09:30:44.534Z,9.70
2022-12-03T09:33:11.048Z,8.40
2022-12-03T09:35:37.828Z,9.53
2022-12-03T09:38:04.353Z,9.93
2022-12-03T09:40:30.987Z,10.57
2022-12-03T09:42:58.812Z,8.37
2022-12-03T09:45:25.552Z,9.43
2022-12-03T09:47:52.512Z,8.67
2022-12-03T09:50:25.447Z,9.07
2022-12-03T09:52:55.097Z,8.73
2022-12-03T09:55:25.169Z,8.43
2022-12-03T09:57:56.255Z,8.13
2022-12-03T10:00:28.223Z,9.67
2022-12-03T10:03:01.888Z,10.10
2022-12-03T10:05:28.729Z,9.40
2022-12-03T10:08:05.372Z,10.03
2022-12-03T10:10:33.420Z,9.00
2022-12-03T10:13:00.342Z,8.80
2022-12-03T10:15:27.133Z,9.77
2022-12-03T10:17:55.288Z,8.40
2022-12-03T10:20:23.903Z,9.77
2022-12-03T10:22:50.834Z,8.10
2022-12-03T10:25:20.833Z,10.13
2022-12-03T10:28:00.491Z,9.37
2022-12-03T10:30:28.546Z,8.20
2022-12-03T10:32:58.001Z,9.17
2022-12-03T10:35:37.541Z,10.13
2022-12-03T10:38:19.393Z,8.97
2022-12-03T10:40:46.749Z,8.47
2022-12-03T10:43:19.092Z,8.67
2022-12-03T10:45:47.472Z,9.93
2022-12-03T10:48:19.800Z,9.53
2022-12-03T10:50:54.593Z,9.97
2022-12-03T10:53:29.517Z,9.37
2022-12-03T10:55:59.910Z,8.97
2022-12-03T10:58:31.847Z,9.30
2022-12-03T11:00:59.060Z,9.03
2022-12-03T11:03:28.910Z,8.63
2022-12-03T11:05:57.059Z,9.67
2022-12-03T11:08:30.668Z,9.73
2022-12-03T11:11:13.358Z,9.97
2022-12-03T11:13:40.022Z,9.60
2022-12-03T11:16:08.386Z,8.70
2022-12-03T11:18:37.966Z,9.23
2022-12-03T11:21:11.324Z,9.23
2022-12-03T11:23:47.069Z,9.67
2022-12-03T11:26:43.896Z,9.70
2022-12-03T11:29:14.322Z,8.37
2022-12-03T11:31:46.632Z,8.33
2022-12-03T11:34:19.611Z,8.07
2022-12-03T11:37:11.344Z,8.20
2022-12-03T11:39:50.656Z,9.17
2022-12-03T11:42:26.038Z,7.50
2022-12-03T11:45:04.605Z,9.10
2022-12-03T11:47:45.423Z,8.50
2022-12-03T11:50:24.151Z,7.17
2022-12-03T11:53:13.566Z,8.13
2022-12-03T11:55:48.484Z,8.07
2022-12-03T11:58:43.185Z,8.00
2022-12-03T12:01:10.060Z,7.00
2022-12-03T12:03:47.298Z,8.57
2022-12-03T12:06:19.487Z,8.47
2022-12-03T12:08:51.937Z,9.63
2022-12-03T12:11:26.486Z,8.43
2022-12-03T12:14:14.799Z,8.20
2022-12-03T12:16:43.328Z,9.53
2022-12-03T12:19:45.658Z,10.00
2022-12-03T12:22:15.785Z,9.70
2022-12-03T12:24:43.490Z,8.90
2022-12-03T12:27:11.942Z,8.73
2022-12-03T12:29:40.971Z,9.03
2022-12-03T12:32:10.746Z,9.40
2022-12-03T12:34:39.214Z,8.53
2022-12-03T12:37:10.906Z,10.33
2022-12-03T12:39:38.801Z,9.37
2022-12-03T12:42:17.986Z,10.17
2022-12-03T12:44:44.613Z,8.90
2022-12-03T12:47:12.548Z,9.10
2022-12-03T12:49:39.082Z,8.30
2022-12-03T12:52:06.055Z,8.73
2022-12-03T12:54:32.637Z,10.00
2022-12-03T12:56:59.218Z,9.30
2022-12-03T12:59:26.031Z,8.33
2022-12-03T13:01:52.699Z,9.87
2022-12-03T13:04:24.023Z,8.97
2022-12-03T13:06:54.049Z,9.10
2022-12-03T13:09:23.888Z,8.10
2022-12-03T13:12:03.838Z,9.17
2022-12-03T13:14:33.233Z,8.57
2022-12-03T13:17:01.934Z,8.47
2022-12-03T13:19:32.984Z,8.33
2022-12-03T13:22:12.772Z,7.80
2022-12-03T13:24:43.217Z,8.23
2022-12-03T13:27:19.744Z,8.97
2022-12-03T13:29:50.822Z,8.70
2022-12-03T13:32:23.217Z,7.93
2022-12-03T13:34:50.703Z,7.77
2022-12-03T13:37:27.065Z,9.10
2022-12-03T13:39:56.622Z,9.47
2022-12-03T13:42:41.439Z,7.53
2022-12-03T13:45:13.730Z,7.37
2022-12-03T13:48:02.063Z,7.83
2022-12-03T13:50:34.538Z,7.73
2022-12-03T13:53:03.747Z,8.63
2022-12-03T13:55:31.454Z,7.60
2022-12-03T13:57:58.304Z,7.60
2022-12-03T14:00:25.116Z,8.07
2022-12-03T14:02:51.849Z,6.83
2022-12-03T14:05:18.965Z,8.13
2022-12-03T14:07:45.772Z,8.57
2022-12-03T14:10:12.919Z,8.60
2022-12-03T14:12:39.458Z,8.97
2022-12-03T14:15:07.049Z,8.57
2022-12-03T14:17:33.597Z,9.00
2022-12-03T14:20:01.394Z,8.60
2022-12-03T14:22:28.768Z,7.87
2022-12-03T14:24:56.023Z,7.53
2022-12-03T14:27:24.577Z,9.63
2022-12-03T14:29:52.495Z,8.67
2022-12-03T14:32:19.440Z,8.87
2022-12-03T14:34:45.996Z,9.20
2022-12-03T14:37:12.590Z,8.73
2022-12-03T14:39:39.667Z,6.73
2022-12-03T14:42:15.601Z,7.87
2022-12-03T14:44:50.024Z,9.10
2022-12-03T14:47:19.074Z,8.13
2022-12-03T14:49:46.322Z,8.53
2022-12-03T14:52:13.083Z,9.00
2022-12-03T14:54:42.630Z,8.07
2022-12-03T14:57:11.645Z,8.73
2022-12-03T14:59:39.278Z,8.87
2022-12-03T15:02:05.922Z,8.90
2022-12-03T15:04:32.483Z,8.30
2022-12-03T15:06:59.003Z,9.27
2022-12-03T15:09:25.766Z,9.07
2022-12-03T15:11:52.319Z,8.87
2022-12-03T15:14:18.877Z,8.07
2022-12-03T15:16:45.548Z,9.03
2022-12-03T15:19:12.089Z,8.43
2022-12-03T15:21:38.696Z,7.37
2022-12-03T15:24:05.654Z,8.77
2022-12-03T15:26:32.185Z,7.43
2022-12-03T15:28:58.729Z,7.03
2022-12-03T15:31:25.393Z,8.37
2022-12-03T15:33:51.941Z,8.30
2022-12-03T15:36:18.523Z,6.97
2022-12-03T15:38:45.100Z,7.30
2022-12-03T15:41:21.401Z,6.97
2022-12-03T15:43:49.082Z,6.30
2022-12-03T15:46:15.780Z,7.37
2022-12-03T15:48:42.420Z,7.37
2022-12-03T15:51:08.984Z,8.10
2022-12-03T15:53:35.541Z,6.87
2022-12-03T15:56:02.158Z,7.13
2022-12-03T15:58:29.097Z,8.00
2022-12-03T16:00:55.742Z,8.33
2022-12-03T16:03:22.590Z,8.03
2022-12-03T16:05:49.301Z,9.87
2022-12-03T16:08:15.918Z,8.57
2022-12-03T16:10:42.520Z,8.00
2022-12-03T16:13:09.334Z,7.60
2022-12-03T16:15:35.939Z,7.90
2022-12-03T16:18:02.496Z,9.20
2022-12-03T16:20:29.297Z,8.50
2022-12-03T16:22:55.906Z,8.20
2022-12-03T16:25:22.488Z,7.20
2022-12-03T16:27:49.073Z,8.00
2022-12-03T16:30:15.798Z,7.73
2022-12-03T16:32:42.350Z,8.23
2022-12-03T16:35:09.486Z,8.67
2022-12-03T16:37:36.009Z,8.83
2022-12-03T16:40:02.967Z,8.63
2022-12-03T16:42:29.680Z,8.13
2022-12-03T16:45:22.859Z,8.57
2022-12-03T16:47:50.113Z,8.23
2022-12-03T16:50:24.496Z,7.63
2022-12-03T16:52:55.501Z,8.40
2022-12-03T16:55:22.037Z,7.97
2022-12-03T16:57:48.559Z,8.03
2022-12-03T17:00:15.717Z,7.90
2022-12-03T17:02:42.257Z,8.87
2022-12-03T17:05:09.143Z,8.00
2022-12-03T17:07:35.991Z,9.10
2022-12-03T17:10:02.688Z,8.07
2022-12-03T17:12:42.326Z,8.13
2022-12-03T17:15:15.958Z,8.53
2022-12-03T17:17:42.444Z,8.30
2022-12-03T17:20:09.275Z,8.20
2022-12-03T17:22:35.976Z,8.70
2022-12-03T17:25:02.482Z,8.43
2022-12-03T17:27:29.527Z,8.90
2022-12-03T17:29:56.281Z,7.87
2022-12-03T17:32:22.947Z,8.30
2022-12-03T17:34:49.708Z,8.83
2022-12-03T17:37:16.333Z,8.27
2022-12-03T17:39:42.826Z,8.83
2022-12-03T17:42:09.418Z,8.47
2022-12-03T17:44:35.986Z,7.93
2022-12-03T17:47:02.567Z,8.17
2022-12-03T17:49:31.642Z,8.77
2022-12-03T17:51:58.634Z,8.10
2022-12-03T17:54:34.133Z,8.90
2022-12-03T17:57:11.673Z,9.77
2022-12-03T17:59:38.151Z,9.63
2022-12-03T18:02:04.709Z,8.03
2022-12-03T18:04:31.533Z,8.97
2022-12-03T18:07:02.177Z,8.80
2022-12-03T18:09:29.257Z,9.87
2022-12-03T18:11:56.005Z,9.87
2022-12-03T18:14:22.485Z,8.67
2022-12-03T18:16:49.069Z,8.67
2022-12-03T18:19:15.784Z,9.30
2022-12-03T18:21:42.345Z,9.30
2022-12-03T18:24:09.486Z,9.60
2022-12-03T18:26:36.300Z,8.40
2022-12-03T18:29:03.259Z,9.23
2022-12-03T18:31:29.876Z,9.87
2022-12-03T18:33:56.638Z,8.30
2022-12-03T18:36:25.989Z,9.23
2022-12-03T18:38:55.420Z,8.60
2022-12-03T18:41:25.154Z,8.30
2022-12-03T18:43:51.999Z,8.80
2022-12-03T18:46:51.226Z,9.83
2022-12-03T18:49:06.226Z,8.77
2022-12-03T18:51:32.752Z,8.90
2022-12-03T18:53:59.277Z,8.63
2022-12-03T18:56:25.838Z,8.63
2022-12-03T18:58:52.352Z,8.13
2022-12-03T19:01:22.278Z,8.57
2022-12-03T19:03:49.998Z,9.07
2022-12-03T19:06:19.641Z,8.53
2022-12-03T19:08:48.245Z,8.10
2022-12-03T19:11:15.360Z,9.23
2022-12-03T19:13:42.133Z,9.17
2022-12-03T19:16:10.466Z,10.00
2022-12-03T19:18:37.248Z,8.57
2022-12-03T19:21:08.612Z,8.33
2022-12-03T19:23:36.976Z,9.40
2022-12-03T19:26:06.199Z,9.23
2022-12-03T19:28:33.024Z,8.90
2022-12-03T19:31:15.027Z,10.30
2022-12-03T19:33:45.578Z,9.67
2022-12-03T19:36:23.899Z,9.03
2022-12-03T19:38:56.846Z,10.27
2022-12-03T19:41:27.388Z,9.93
2022-12-03T19:43:55.385Z,10.40
2022-12-03T19:46:23.956Z,10.20
2022-12-03T19:48:50.766Z,10.47
2022-12-03T19:51:33.668Z,10.20
2022-12-03T19:54:01.090Z,10.10
2022-12-03T19:56:30.251Z,11.60
2022-12-03T19:58:57.426Z,10.00
2022-12-03T20:01:26.866Z,10.13
2022-12-03T20:03:55.334Z,10.27
2022-12-03T20:06:24.565Z,9.93
2022-12-03T20:08:55.648Z,10.73
2022-12-03T20:11:25.152Z,10.33
2022-12-03T20:13:57.667Z,10.83
2022-12-03T20:16:25.832Z,10.90
2022-12-03T20:18:57.122Z,10.80
2022-12-03T20:21:24.260Z,10.47
2022-12-03T20:23:50.830Z,10.40
2022-12-03T20:26:19.654Z,10.53
2022-12-03T20:28:48.149Z,10.33
2022-12-03T20:31:20.178Z,10.40
2022-12-03T20:33:50.124Z,10.03
2022-12-03T20:36:18.610Z,10.57
2022-12-03T20:38:45.297Z,10.83
2022-12-03T20:41:14.393Z,12.20
2022-12-03T20:43:41.465Z,10.97
2022-12-03T20:46:17.983Z,10.97
2022-12-03T20:48:45.398Z,11.27
2022-12-03T20:51:15.487Z,10.07
2022-12-03T20:53:42.937Z,12.10
2022-12-03T20:56:18.583Z,11.43
2022-12-03T20:58:45.120Z,12.30
2022-12-03T21:01:16.167Z,11.63
2022-12-03T21:03:43.865Z,10.40
2022-12-03T21:06:11.524Z,10.83
2022-12-03T21:08:41.893Z,10.53
2022-12-03T21:11:14.946Z,11.63
2022-12-03T21:13:43.503Z,11.70
2022-12-03T21:16:13.293Z,10.50
2022-12-03T21:18:40.598Z,11.20
2022-12-03T21:21:08.579Z,10.60
2022-12-03T21:23:35.632Z,11.00
2022-12-03T21:26:22.297Z,10.50
2022-12-03T21:28:51.289Z,11.40
2022-12-03T21:31:20.679Z,10.33
2022-12-03T21:33:48.212Z,10.93
2022-12-03T21:36:16.813Z,11.10
2022-12-03T21:38:44.945Z,11.33
2022-12-03T21:41:12.688Z,12.27
2022-12-03T21:43:39.295Z,10.63
2022-12-03T21:47:10.160Z,11.00
2022-12-03T21:48:59.455Z,11.17
2022-12-03T21:51:26.021Z,11.37
2022-12-03T21:53:53.497Z,9.73
2022-12-03T21:56:20.204Z,11.67
2022-12-03T21:58:47.026Z,10.53
2022-12-03T22:01:19.542Z,15.30
2022-12-03T22:03:46.502Z,11.77
2022-12-03T22:09:54.123Z,10.43
2022-12-03T22:12:20.790Z,10.87
2022-12-03T22:14:47.369Z,11.03
2022-12-03T22:17:13.909Z,11.07
2022-12-03T22:19:40.482Z,10.80
2022-12-03T22:22:07.048Z,11.50
2022-12-03T22:24:33.745Z,10.97
2022-12-03T22:27:00.335Z,10.60
2022-12-03T22:29:26.849Z,11.23
2022-12-03T22:31:53.483Z,11.17
2022-12-03T22:34:20.008Z,9.90
2022-12-03T22:36:46.577Z,11.77
2022-12-03T22:39:13.292Z,11.63
2022-12-03T22:41:39.793Z,12.37
2022-12-03T22:44:06.293Z,11.43
2022-12-03T22:46:33.155Z,12.33
2022-12-03T22:49:06.455Z,10.63
2022-12-03T22:51:34.220Z,11.00
2022-12-03T22:54:01.878Z,10.73
2022-12-03T22:56:30.340Z,10.77
2022-12-03T22:58:57.247Z,11.13
2022-12-03T23:01:27.878Z,10.93
2022-12-03T23:03:54.815Z,11.50
2022-12-03T23:06:22.645Z,11.23
2022-12-03T23:08:49.624Z,10.37
2022-12-03T23:11:16.606Z,10.83
2022-12-03T23:13:43.123Z,11.73
2022-12-03T23:16:15.150Z,11.63
2022-12-03T23:18:42.110Z,11.73
2022-12-03T23:21:09.111Z,11.47
2022-12-03T23:23:35.642Z,11.90
2022-12-03T23:26:07.901Z,11.07
2022-12-03T23:28:36.672Z,11.30
2022-12-03T23:31:04.286Z,11.87
2022-12-03T23:33:36.624Z,11.93
2022-12-03T23:36:06.334Z,11.23
2022-12-03T23:38:32.791Z,11.23
2022-12-03T23:41:07.301Z,11.53
2022-12-03T23:43:34.093Z,11.77
2022-12-03T23:46:09.500Z,11.50
2022-12-03T23:48:36.472Z,11.17
2022-12-03T23:51:11.469Z,10.93
2022-12-03T23:53:39.061Z,11.13
2022-12-03T23:56:07.204Z,11.50
2022-12-03T23:58:34.252Z,11.27
